Time;durP1;ratioP1;P1;durP2;ratioP2;P2;SDS_P1;SDS_P2;PMS_P1;PMS_P2;Temp;Humidity;BMP_temperature;BMP_pressure;BME280_temperature;BME280_humidity;BME280_pressure;Samples;Min_cycle;Max_cycle;Signal;HPM_P1;HPM_P2
2023/07/28 18:03:54;;;;;;;4.60;3.85;;;20.90;99.90;;;;;;5290525;27;20382;-66
2023/07/28 18:06:24;;;;;;;4.18;3.88;;;20.80;99.90;;;;;;5290855;28;20046;-66
2023/07/28 18:08:55;;;;;;;4.38;4.07;;;20.60;99.90;;;;;;5286101;28;20020;-67
2023/07/28 18:11:26;;;;;;;5.35;5.03;;;20.60;99.90;;;;;;5284643;28;20024;-66
2023/07/28 18:13:58;;;;;;;5.22;4.93;;;20.50;99.90;;;;;;5278931;28;20016;-68
2023/07/28 18:16:29;;;;;;;5.10;4.70;;;20.40;99.90;;;;;;5271302;28;20039;-66
2023/07/28 18:19:00;;;;;;;3.42;3.13;;;20.40;99.90;;;;;;5268249;28;20028;-67
2023/07/28 18:21:31;;;;;;;4.10;3.80;;;20.40;99.90;;;;;;5268985;28;20059;-64
2023/07/28 18:24:02;;;;;;;3.95;3.60;;;20.30;99.90;;;;;;5270374;28;20039;-67
2023/07/28 18:26:33;;;;;;;3.40;3.10;;;20.20;99.90;;;;;;5267286;28;20032;-68
2023/07/28 18:29:04;;;;;;;4.13;3.83;;;19.90;99.90;;;;;;5270539;28;20814;-69
2023/07/28 18:31:35;;;;;;;4.50;4.15;;;20.20;99.90;;;;;;5268722;28;20375;-68
2023/07/28 18:34:06;;;;;;;4.55;4.18;;;20.10;99.90;;;;;;5269267;28;20083;-69
2023/07/28 18:36:37;;;;;;;4.55;4.25;;;19.90;99.90;;;;;;5269899;28;20387;-69
2023/07/28 18:39:07;;;;;;;5.65;5.15;;;19.80;99.90;;;;;;5268426;28;20107;-69
2023/07/28 18:41:38;;;;;;;43.45;6.82;;;19.80;99.90;;;;;;5267550;28;20025;-69
2023/07/28 18:44:09;;;;;;;15.32;5.63;;;19.70;99.90;;;;;;5269906;28;20059;-66
2023/07/28 18:46:40;;;;;;;5.22;4.75;;;19.60;99.90;;;;;;5267609;28;20099;-66
2023/07/28 18:49:11;;;;;;;4.97;4.68;;;19.70;99.90;;;;;;5267835;28;20024;-66
2023/07/28 18:51:42;;;;;;;5.20;4.90;;;19.70;99.90;;;;;;5269622;28;20073;-66
2023/07/28 18:54:14;;;;;;;5.22;4.90;;;19.40;99.90;;;;;;5267555;28;20036;-67
2023/07/28 18:56:47;;;;;;;6.22;4.22;;;19.60;99.90;;;;;;5269485;28;20032;-69
2023/07/28 18:59:19;;;;;;;4.05;3.65;;;19.20;99.90;;;;;;5268214;28;20150;-68
2023/07/28 19:01:49;;;;;;;3.30;3.10;;;19.10;99.90;;;;;;5268750;28;20463;-68
2023/07/28 19:04:21;;;;;;;4.07;3.67;;;19.00;99.90;;;;;;5269841;28;20030;-67
2023/07/28 19:06:52;;;;;;;12.65;3.97;;;19.00;99.90;;;;;;5269380;28;20183;-67
2023/07/28 19:09:23;;;;;;;8.23;4.28;;;19.10;99.90;;;;;;5268542;28;20527;-68
2023/07/28 19:11:55;;;;;;;4.13;3.83;;;18.60;99.90;;;;;;5268087;28;20028;-69
2023/07/28 19:14:27;;;;;;;4.43;4.03;;;18.90;99.90;;;;;;5259207;28;20031;-66
2023/07/28 19:16:57;;;;;;;5.20;4.80;;;18.80;99.90;;;;;;5255106;28;20032;-67
2023/07/28 19:19:29;;;;;;;7.05;5.00;;;18.80;99.90;;;;;;5254095;28;20031;-66
2023/07/28 19:22:00;;;;;;;5.30;4.90;;;18.90;99.90;;;;;;5253104;28;20466;-67
2023/07/28 19:24:30;;;;;;;4.75;4.43;;;18.90;99.90;;;;;;5252406;28;20095;-67
2023/07/28 19:27:01;;;;;;;4.20;3.90;;;18.70;99.90;;;;;;5254289;28;20024;-68
2023/07/28 19:29:32;;;;;;;5.47;3.88;;;18.70;99.90;;;;;;5255271;28;20032;-67
2023/07/28 19:32:04;;;;;;;4.93;2.90;;;18.70;99.90;;;;;;5254050;28;20040;-68
2023/07/28 19:34:35;;;;;;;4.00;3.50;;;18.40;99.90;;;;;;5258452;28;20031;-68
2023/07/28 19:37:06;;;;;;;3.42;3.22;;;18.60;99.90;;;;;;5258235;28;20095;-68
2023/07/28 19:39:40;;;;;;;7.20;4.22;;;18.50;99.90;;;;;;5255311;28;20027;-68
2023/07/28 19:42:11;;;;;;;4.40;4.10;;;18.10;99.90;;;;;;5254007;28;20033;-67
2023/07/28 19:44:41;;;;;;;3.95;3.65;;;18.50;99.90;;;;;;5252850;28;20391;-68
2023/07/28 19:47:12;;;;;;;5.30;3.67;;;18.50;99.90;;;;;;5254063;28;20033;-68
2023/07/28 19:49:43;;;;;;;3.42;3.22;;;18.50;99.90;;;;;;5251916;28;20035;-69
2023/07/28 19:52:14;;;;;;;3.63;3.33;;;18.40;99.90;;;;;;5253716;28;20042;-69
2023/07/28 19:54:45;;;;;;;3.60;3.30;;;18.40;99.90;;;;;;5252245;28;20036;-67
2023/07/28 19:57:16;;;;;;;3.33;3.03;;;18.40;99.90;;;;;;5254556;28;20542;-68
2023/07/28 19:59:47;;;;;;;3.67;3.47;;;18.20;99.90;;;;;;5251144;28;20797;-67
2023/07/28 20:02:18;;;;;;;4.75;3.08;;;18.10;99.90;;;;;;5250061;28;20056;-69
2023/07/28 20:04:49;;;;;;;2.90;2.70;;;18.40;99.90;;;;;;5253446;28;20448;-68
2023/07/28 20:07:20;;;;;;;3.40;3.10;;;17.90;99.90;;;;;;5254512;28;20029;-68
2023/07/28 20:09:51;;;;;;;9.23;3.00;;;18.00;99.90;;;;;;5248364;28;20411;-68
2023/07/28 20:12:22;;;;;;;8.75;3.15;;;17.90;99.90;;;;;;5251689;28;20025;-68
2023/07/28 20:14:53;;;;;;;6.25;3.10;;;18.10;99.90;;;;;;5251914;28;20103;-68
2023/07/28 20:17:25;;;;;;;10.38;3.25;;;18.00;99.90;;;;;;5253659;28;20035;-68
2023/07/28 20:19:56;;;;;;;14.57;3.20;;;18.10;99.90;;;;;;5252974;28;20020;-68
2023/07/28 20:22:27;;;;;;;3.47;3.17;;;17.70;99.90;;;;;;5253509;28;20112;-69
2023/07/28 20:24:58;;;;;;;5.55;5.05;;;17.90;99.90;;;;;;5253728;28;20040;-66
2023/07/28 20:27:30;;;;;;;8.35;3.85;;;17.90;99.90;;;;;;5251147;28;20029;-69
2023/07/28 20:30:01;;;;;;;3.55;3.35;;;17.80;99.90;;;;;;5252759;28;20053;-68
2023/07/28 20:32:32;;;;;;;4.47;3.70;;;18.00;99.90;;;;;;5254248;28;20499;-68
2023/07/28 20:35:04;;;;;;;3.83;3.20;;;17.90;99.90;;;;;;5250896;28;20135;-67
2023/07/28 20:37:35;;;;;;;4.15;3.50;;;17.60;99.90;;;;;;5249115;28;20035;-68
2023/07/28 20:40:06;;;;;;;20.42;3.38;;;17.50;99.90;;;;;;5253400;28;20020;-68
2023/07/28 20:42:37;;;;;;;21.70;3.58;;;17.70;99.90;;;;;;5252005;28;20040;-67
2023/07/28 20:45:08;;;;;;;3.30;3.00;;;17.70;99.90;;;;;;5253891;28;20035;-67
2023/07/28 20:47:39;;;;;;;3.25;2.72;;;17.50;99.90;;;;;;5253679;28;20020;-67
2023/07/28 20:50:10;;;;;;;3.67;2.83;;;17.60;99.90;;;;;;5253622;28;20081;-67
2023/07/28 20:52:41;;;;;;;4.10;3.08;;;17.30;99.90;;;;;;5253217;28;20054;-68
2023/07/28 20:55:12;;;;;;;14.60;3.28;;;17.50;99.90;;;;;;5253701;28;20020;-67
2023/07/28 20:57:46;;;;;;;11.52;3.08;;;17.60;99.90;;;;;;5252876;28;20036;-69
2023/07/28 21:00:17;;;;;;;4.40;2.65;;;17.60;99.90;;;;;;5253093;28;20048;-68
2023/07/28 21:02:48;;;;;;;3.25;3.05;;;17.50;99.90;;;;;;5252774;28;20696;-69
2023/07/28 21:05:19;;;;;;;5.82;2.90;;;17.60;99.90;;;;;;5254793;28;20379;-68
2023/07/28 21:07:49;;;;;;;3.28;3.08;;;17.60;99.90;;;;;;5254773;28;20483;-68
2023/07/28 21:10:20;;;;;;;22.30;3.63;;;17.50;99.90;;;;;;5253076;28;20471;-67
2023/07/28 21:12:51;;;;;;;4.07;3.67;;;17.50;99.90;;;;;;5251142;28;20024;-68
2023/07/28 21:15:22;;;;;;;3.35;2.97;;;17.20;99.90;;;;;;5253237;28;20028;-67
2023/07/28 21:17:53;;;;;;;3.05;2.85;;;17.20;99.90;;;;;;5249668;28;20090;-68
2023/07/28 21:20:24;;;;;;;2.90;2.70;;;17.00;99.90;;;;;;5252814;28;20115;-68
2023/07/28 21:22:55;;;;;;;8.57;3.22;;;16.90;99.90;;;;;;5251517;28;20384;-67
2023/07/28 21:25:26;;;;;;;8.70;3.20;;;17.10;99.90;;;;;;5252597;28;20017;-68
2023/07/28 21:27:56;;;;;;;4.85;3.40;;;17.20;99.90;;;;;;5251568;28;20047;-69
2023/07/28 21:30:27;;;;;;;9.90;3.50;;;17.10;99.90;;;;;;5253229;28;20104;-67
2023/07/28 21:33:02;;;;;;;10.43;3.75;;;17.10;99.90;;;;;;5251892;28;20476;-68
2023/07/28 21:35:33;;;;;;;7.38;6.75;;;17.10;99.90;;;;;;5271349;28;20036;-69
2023/07/28 21:38:04;;;;;;;7.18;6.65;;;17.00;99.90;;;;;;5253078;28;20034;-67
2023/07/28 21:40:36;;;;;;;6.53;5.95;;;16.80;99.90;;;;;;5257439;28;20024;-68
2023/07/28 21:43:07;;;;;;;6.70;6.22;;;16.90;99.90;;;;;;5257378;28;20594;-67
2023/07/28 21:45:38;;;;;;;5.80;5.40;;;16.70;99.90;;;;;;5255912;28;20078;-68
2023/07/28 21:48:09;;;;;;;9.15;8.60;;;17.00;99.90;;;;;;5257522;28;20766;-69
2023/07/28 21:50:40;;;;;;;4.18;3.78;;;17.00;99.90;;;;;;5258471;28;20068;-67
2023/07/28 21:53:11;;;;;;;4.07;3.78;;;16.80;99.90;;;;;;5257174;28;20155;-68
2023/07/28 21:55:42;;;;;;;3.70;3.40;;;16.90;99.90;;;;;;5256909;28;20461;-68
2023/07/28 21:58:13;;;;;;;9.15;4.05;;;16.70;99.90;;;;;;5258864;28;20028;-67
2023/07/28 22:00:44;;;;;;;3.30;3.00;;;16.70;99.90;;;;;;5257361;28;20137;-67
2023/07/28 22:03:15;;;;;;;3.92;3.50;;;16.70;99.90;;;;;;5263088;28;20064;-67
2023/07/28 22:05:46;;;;;;;4.05;3.75;;;16.70;99.90;;;;;;5266437;28;20035;-67
2023/07/28 22:08:17;;;;;;;4.10;3.72;;;16.50;99.90;;;;;;5267171;28;20065;-68
2023/07/28 22:10:48;;;;;;;14.05;3.53;;;16.50;99.90;;;;;;5259731;28;20013;-67
2023/07/28 22:13:19;;;;;;;3.65;3.35;;;16.70;99.90;;;;;;5250743;28;20039;-68
2023/07/28 22:15:50;;;;;;;4.05;3.72;;;16.70;99.90;;;;;;5257269;28;20024;-67
2023/07/28 22:18:21;;;;;;;4.07;3.78;;;16.70;99.90;;;;;;5256613;28;20029;-68
2023/07/28 22:20:52;;;;;;;21.95;3.90;;;16.70;99.90;;;;;;5256959;28;20027;-67
2023/07/28 22:23:23;;;;;;;3.95;3.65;;;16.40;99.90;;;;;;5257816;28;20474;-67
2023/07/28 22:25:54;;;;;;;63.20;41.55;;;16.20;99.90;;;;;;5258587;28;20094;-67
2023/07/28 22:28:25;;;;;;;3.42;3.15;;;16.50;99.90;;;;;;5255795;28;20467;-67
2023/07/28 22:30:56;;;;;;;5.53;3.15;;;16.10;99.90;;;;;;5259167;28;20017;-68
2023/07/28 22:33:27;;;;;;;4.28;3.83;;;16.30;99.90;;;;;;5258209;28;20036;-68
2023/07/28 22:35:58;;;;;;;3.58;3.38;;;16.40;99.90;;;;;;5261135;28;20032;-68
2023/07/28 22:38:30;;;;;;;3.70;3.50;;;16.40;99.90;;;;;;5255491;28;20376;-67
2023/07/28 22:41:01;;;;;;;3.55;3.25;;;16.40;99.90;;;;;;5258316;28;20024;-68
2023/07/28 22:43:32;;;;;;;4.18;3.78;;;16.50;99.90;;;;;;5255441;28;20036;-68
2023/07/28 22:46:03;;;;;;;3.83;3.53;;;16.60;99.90;;;;;;5257789;28;20012;-66
2023/07/28 22:48:35;;;;;;;4.05;3.75;;;16.10;99.90;;;;;;5260080;28;20029;-67
2023/07/28 22:51:05;;;;;;;3.95;3.65;;;16.00;99.90;;;;;;5264294;28;20110;-68
2023/07/28 22:53:36;;;;;;;5.00;3.78;;;16.20;99.90;;;;;;5270845;28;20543;-68
2023/07/28 22:56:07;;;;;;;3.42;3.22;;;16.30;99.90;;;;;;5269922;28;20107;-68
2023/07/28 22:58:38;;;;;;;3.67;3.30;;;16.20;99.90;;;;;;5270916;28;20070;-67
2023/07/28 23:01:09;;;;;;;3.97;3.20;;;16.20;99.90;;;;;;5270609;28;20032;-68
2023/07/28 23:03:40;;;;;;;3.63;3.35;;;16.30;99.90;;;;;;5270271;28;20521;-67
2023/07/28 23:06:11;;;;;;;3.55;3.22;;;16.00;99.90;;;;;;5269851;28;20035;-68
2023/07/28 23:08:42;;;;;;;3.50;3.20;;;15.90;99.90;;;;;;5269652;28;20648;-67
2023/07/28 23:11:13;;;;;;;33.30;4.63;;;16.00;99.90;;;;;;5268673;28;20127;-67
2023/07/28 23:13:44;;;;;;;11.73;3.95;;;15.90;99.90;;;;;;5269561;28;20024;-66
2023/07/28 23:16:15;;;;;;;3.55;3.22;;;16.10;99.90;;;;;;5269594;28;20046;-67
2023/07/28 23:18:45;;;;;;;3.60;3.30;;;16.40;99.90;;;;;;5269337;28;20032;-68
2023/07/28 23:21:16;;;;;;;3.70;3.40;;;16.10;99.90;;;;;;5269082;28;20112;-67
2023/07/28 23:23:49;;;;;;;3.55;3.33;;;16.10;99.90;;;;;;5270498;28;20047;-67
2023/07/28 23:26:19;;;;;;;3.67;3.38;;;16.00;99.90;;;;;;5270349;28;20043;-67
2023/07/28 23:28:50;;;;;;;5.65;3.63;;;16.30;99.90;;;;;;5270270;28;20936;-68
2023/07/28 23:31:23;;;;;;;3.92;3.63;;;16.00;99.90;;;;;;5270215;28;20729;-67
2023/07/28 23:33:54;;;;;;;3.42;3.20;;;16.00;99.90;;;;;;5270052;28;20035;-68
2023/07/28 23:36:25;;;;;;;3.80;3.50;;;15.80;99.90;;;;;;5268821;28;20195;-67
2023/07/28 23:38:56;;;;;;;3.80;3.50;;;15.80;99.90;;;;;;5270428;28;20057;-67
2023/07/28 23:41:27;;;;;;;3.20;2.92;;;15.90;99.90;;;;;;5268865;28;20483;-67
2023/07/28 23:44:04;;;;;;;4.35;3.55;;;15.80;99.90;;;;;;5269936;28;20367;-67
2023/07/28 23:46:35;;;;;;;3.47;3.20;;;15.70;99.90;;;;;;5270097;28;20031;-67
2023/07/28 23:49:06;;;;;;;3.38;3.17;;;15.70;99.90;;;;;;5269871;28;20035;-68
2023/07/28 23:51:37;;;;;;;3.88;3.58;;;15.70;99.90;;;;;;5269842;28;20032;-68
2023/07/28 23:54:07;;;;;;;3.55;3.30;;;15.80;99.90;;;;;;5269905;28;20016;-67
2023/07/28 23:56:38;;;;;;;3.80;3.53;;;15.60;99.90;;;;;;5269847;28;20027;-67
2023/07/28 23:59:10;;;;;;;3.55;3.25;;;15.70;99.90;;;;;;5280668;28;20030;-67
